createdAt,value
2019-01-17T00:04:02.071Z,13.17
2019-01-17T00:09:26.172Z,14.80
2019-01-17T00:14:48.730Z,15.23
2019-01-17T00:20:09.207Z,13.60
2019-01-17T00:25:32.319Z,13.37
2019-01-17T00:31:06.093Z,14.37
2019-01-17T00:36:26.507Z,15.30
2019-01-17T00:41:47.013Z,15.17
2019-01-17T00:46:59.085Z,15.90
2019-01-17T00:52:36.305Z,12.97
2019-01-17T00:57:58.112Z,10.93
2019-01-17T01:03:24.950Z,12.57
2019-01-17T01:08:46.597Z,12.20
2019-01-17T01:14:17.449Z,15.47
2019-01-17T01:19:45.391Z,15.43
2019-01-17T01:24:57.633Z,15.40
2019-01-17T01:30:15.776Z,15.30
2019-01-17T01:35:43.427Z,14.13
2019-01-17T01:40:52.817Z,11.43
2019-01-17T01:46:13.191Z,14.87
2019-01-17T01:51:33.676Z,14.40
2019-01-17T01:56:36.339Z,14.40
2019-01-17T02:01:39.385Z,11.43
2019-01-17T02:06:42.037Z,14.30
2019-01-17T02:11:44.962Z,15.23
2019-01-17T02:16:47.645Z,14.90
2019-01-17T02:21:49.845Z,15.67
2019-01-17T02:26:52.747Z,15.30
2019-01-17T02:31:55.244Z,13.37
2019-01-17T02:36:58.098Z,13.30
2019-01-17T02:42:00.658Z,10.83
2019-01-17T02:47:03.554Z,13.63
2019-01-17T02:52:06.336Z,10.07
2019-01-17T02:57:09.054Z,15.47
2019-01-17T03:02:11.513Z,10.90
2019-01-17T03:07:14.718Z,8.70
2019-01-17T03:12:17.973Z,12.10
2019-01-17T03:17:20.752Z,12.07
2019-01-17T03:22:23.798Z,12.47
2019-01-17T03:27:27.322Z,10.00
2019-01-17T03:32:30.019Z,10.50
2019-01-17T03:37:32.753Z,10.70
2019-01-17T03:42:36.175Z,11.67
2019-01-17T03:47:39.209Z,16.00
2019-01-17T03:52:42.414Z,10.83
2019-01-17T03:57:46.343Z,13.83
2019-01-17T04:02:48.931Z,11.20
2019-01-17T04:07:51.191Z,11.77
2019-01-17T04:12:54.131Z,13.70
2019-01-17T04:17:56.957Z,15.00
2019-01-17T04:22:59.283Z,15.47
2019-01-17T04:28:01.772Z,13.37
2019-01-17T04:33:04.846Z,14.53
2019-01-17T04:38:07.437Z,10.00
2019-01-17T04:43:09.654Z,14.07
2019-01-17T04:48:12.028Z,11.43
2019-01-17T04:53:14.388Z,14.43
2019-01-17T04:58:16.867Z,9.90
2019-01-17T05:03:19.888Z,10.80
2019-01-17T05:08:22.215Z,11.70
2019-01-17T05:13:24.822Z,12.73
2019-01-17T05:18:27.522Z,10.07
2019-01-17T05:23:30.060Z,12.97
2019-01-17T05:28:32.754Z,12.20
2019-01-17T05:33:35.639Z,12.13
2019-01-17T05:38:39.074Z,12.57
2019-01-17T05:43:41.798Z,12.23
2019-01-17T05:48:44.344Z,9.90
2019-01-17T05:53:46.863Z,12.63
2019-01-17T05:58:49.195Z,10.93
2019-01-17T06:03:52.522Z,10.37
2019-01-17T06:08:54.699Z,12.33
2019-01-17T06:13:57.025Z,11.17
2019-01-17T06:19:00.036Z,11.77
2019-01-17T06:24:02.767Z,11.40
2019-01-17T06:29:05.210Z,9.47
2019-01-17T06:34:07.618Z,10.87
2019-01-17T06:39:10.840Z,9.93
2019-01-17T06:44:13.460Z,10.40
2019-01-17T06:49:16.601Z,9.97
2019-01-17T06:54:18.976Z,10.27
2019-01-17T06:59:21.792Z,9.23
2019-01-17T07:04:24.280Z,9.83
2019-01-17T07:09:27.152Z,10.53
2019-01-17T07:14:30.021Z,12.13
2019-01-17T07:19:32.257Z,9.30
2019-01-17T07:24:35.477Z,10.97
2019-01-17T07:29:38.043Z,11.20
2019-01-17T07:34:40.303Z,10.10
2019-01-17T07:39:43.127Z,9.30
2019-01-17T07:44:45.988Z,9.33
2019-01-17T07:49:48.760Z,9.57
2019-01-17T07:54:51.297Z,7.93
2019-01-17T07:59:53.669Z,7.60
2019-01-17T08:04:56.525Z,9.53
2019-01-17T08:10:01.559Z,6.70
2019-01-17T08:15:05.491Z,8.27
2019-01-17T08:20:19.165Z,6.10
2019-01-17T08:25:22.041Z,9.27
2019-01-17T08:30:26.622Z,7.00
2019-01-17T08:35:30.433Z,8.50
2019-01-17T08:40:34.025Z,8.13
2019-01-17T08:45:36.619Z,6.50
2019-01-17T08:50:39.589Z,5.27
2019-01-17T08:55:43.140Z,5.73
2019-01-17T09:00:45.909Z,7.20
2019-01-17T09:05:49.312Z,6.57
2019-01-17T09:10:51.691Z,6.83
2019-01-17T09:15:53.980Z,6.80
2019-01-17T09:20:56.405Z,6.30
2019-01-17T09:25:58.803Z,6.27
2019-01-17T09:31:01.697Z,8.50
2019-01-17T09:36:04.779Z,7.47
2019-01-17T09:41:07.505Z,9.27
2019-01-17T09:46:11.929Z,8.07
2019-01-17T09:51:15.240Z,6.97
2019-01-17T09:56:17.525Z,7.10
2019-01-17T10:01:20.443Z,6.33
2019-01-17T10:06:25.582Z,5.90
2019-01-17T10:11:27.863Z,5.27
2019-01-17T10:17:03.755Z,7.37
2019-01-17T10:23:02.340Z,6.23
2019-01-17T10:29:00.007Z,13.93
2019-01-17T10:34:21.498Z,9.87
2019-01-17T10:40:28.804Z,8.03
2019-01-17T10:46:27.777Z,7.20
2019-01-17T10:52:26.811Z,6.13
2019-01-17T10:58:01.317Z,7.83
2019-01-17T11:03:41.720Z,7.43
2019-01-17T11:09:37.281Z,6.07
2019-01-17T11:15:23.987Z,5.87
2019-01-17T11:21:08.560Z,5.83
2019-01-17T11:27:00.623Z,5.50
2019-01-17T11:32:35.306Z,7.50
2019-01-17T11:38:20.399Z,9.77
2019-01-17T11:43:58.704Z,10.50
2019-01-17T11:50:07.267Z,9.20
2019-01-17T11:55:29.776Z,7.50
2019-01-17T12:01:36.958Z,7.10
2019-01-17T12:06:40.010Z,8.50
2019-01-17T12:11:42.334Z,7.33
2019-01-17T12:16:49.282Z,7.00
2019-01-17T12:21:51.921Z,5.63
2019-01-17T12:26:54.559Z,7.03
2019-01-17T12:31:57.568Z,4.90
2019-01-17T12:37:00.148Z,4.83
2019-01-17T12:42:03.717Z,6.30
2019-01-17T12:47:06.277Z,5.00
2019-01-17T12:52:08.514Z,5.40
2019-01-17T12:57:11.121Z,4.27
2019-01-17T13:02:13.617Z,5.17
2019-01-17T13:07:15.934Z,7.63
2019-01-17T13:12:18.227Z,6.70
2019-01-17T13:17:20.663Z,6.30
2019-01-17T13:22:22.937Z,7.07
2019-01-17T13:27:25.110Z,4.60
2019-01-17T13:32:27.376Z,4.50
2019-01-17T13:37:29.666Z,11.23
2019-01-17T13:42:32.157Z,4.37
2019-01-17T13:47:34.883Z,5.90
2019-01-17T13:52:37.858Z,4.90
2019-01-17T13:57:41.048Z,5.40
2019-01-17T14:02:43.506Z,12.17
2019-01-17T14:07:46.837Z,6.40
2019-01-17T14:12:49.921Z,4.20
2019-01-17T14:17:53.259Z,5.53
2019-01-17T14:22:55.687Z,6.00
2019-01-17T14:27:57.918Z,5.30
2019-01-17T14:33:02.677Z,8.13
2019-01-17T14:38:05.004Z,4.73
2019-01-17T14:43:07.741Z,3.77
2019-01-17T14:48:10.031Z,4.97
2019-01-17T14:53:13.541Z,4.10
2019-01-17T14:58:15.807Z,4.13
2019-01-17T15:03:18.067Z,8.93
2019-01-17T15:08:20.972Z,3.77
2019-01-17T15:13:23.554Z,5.10
2019-01-17T15:18:25.732Z,4.20
2019-01-17T15:23:28.518Z,5.77
2019-01-17T15:28:31.422Z,8.17
2019-01-17T15:33:33.783Z,4.90
2019-01-17T15:38:36.842Z,6.83
2019-01-17T15:43:39.835Z,12.33
2019-01-17T15:48:44.020Z,5.20
2019-01-17T15:53:46.325Z,7.23
2019-01-17T15:58:48.558Z,4.67
2019-01-17T16:03:51.947Z,4.10
2019-01-17T16:08:55.229Z,4.67
2019-01-17T16:13:57.882Z,9.07
2019-01-17T16:19:00.166Z,5.00
2019-01-17T16:24:03.741Z,6.97
2019-01-17T16:29:06.253Z,5.13
2019-01-17T16:34:08.710Z,5.37
2019-01-17T16:39:12.049Z,4.77
2019-01-17T16:44:14.950Z,5.93
2019-01-17T16:49:19.138Z,4.80
2019-01-17T16:54:21.456Z,4.10
2019-01-17T16:59:24.267Z,5.33
2019-01-17T17:04:27.266Z,7.57
2019-01-17T17:09:29.852Z,3.27
2019-01-17T17:14:33.650Z,4.07
2019-01-17T17:19:36.048Z,5.73
2019-01-17T17:24:38.486Z,3.70
2019-01-17T17:29:41.762Z,3.73
2019-01-17T17:34:46.343Z,3.53
2019-01-17T17:39:48.549Z,3.60
2019-01-17T17:44:50.836Z,4.17
2019-01-17T17:49:53.944Z,4.50
2019-01-17T17:54:56.292Z,3.80
2019-01-17T17:59:59.063Z,3.77
2019-01-17T18:05:01.348Z,4.50
2019-01-17T18:10:07.426Z,4.67
2019-01-17T18:15:12.231Z,6.63
2019-01-17T18:20:15.070Z,4.57
2019-01-17T18:25:18.039Z,6.17
2019-01-17T18:30:21.878Z,6.27
2019-01-17T18:35:25.824Z,8.17
2019-01-17T18:40:28.221Z,6.70
2019-01-17T18:45:30.671Z,9.13
2019-01-17T18:50:33.813Z,6.57
2019-01-17T18:55:36.370Z,8.27
2019-01-17T19:00:38.961Z,7.97
2019-01-17T19:05:42.267Z,6.97
2019-01-17T19:10:45.253Z,7.07
2019-01-17T19:15:49.009Z,7.07
2019-01-17T19:20:51.684Z,6.13
2019-01-17T19:25:54.162Z,5.83
2019-01-17T19:30:56.666Z,6.17
2019-01-17T19:35:59.018Z,6.17
2019-01-17T19:41:01.446Z,8.13
2019-01-17T19:46:03.956Z,7.27
2019-01-17T19:51:06.556Z,7.17
2019-01-17T19:56:09.057Z,8.03
2019-01-17T20:01:11.457Z,9.63
2019-01-17T20:06:14.019Z,7.20
2019-01-17T20:11:17.223Z,7.23
2019-01-17T20:16:19.981Z,7.07
2019-01-17T20:21:22.578Z,4.87
2019-01-17T20:26:25.102Z,8.63
2019-01-17T20:31:27.597Z,7.37
2019-01-17T20:36:29.987Z,4.40
2019-01-17T20:41:32.861Z,5.70
2019-01-17T20:46:35.428Z,5.33
2019-01-17T20:51:37.735Z,6.70
2019-01-17T20:56:40.674Z,7.27
2019-01-17T21:02:06.174Z,7.73
2019-01-17T21:07:08.695Z,5.83
2019-01-17T21:12:11.484Z,6.37
2019-01-17T21:17:13.875Z,5.97
2019-01-17T21:22:16.810Z,11.27
2019-01-17T21:27:23.723Z,6.27
2019-01-17T21:32:27.112Z,8.40
2019-01-17T21:37:29.707Z,6.70
2019-01-17T21:42:32.285Z,6.10
2019-01-17T21:47:34.995Z,6.07
2019-01-17T21:52:37.553Z,7.73
2019-01-17T21:57:40.082Z,6.73
2019-01-17T22:02:42.514Z,6.93
2019-01-17T22:07:45.589Z,9.23
2019-01-17T22:12:48.033Z,4.93
2019-01-17T22:17:50.747Z,6.87
2019-01-17T22:22:52.950Z,6.33
2019-01-17T22:27:55.544Z,7.73
2019-01-17T22:32:58.261Z,6.87
2019-01-17T22:38:00.752Z,6.93
2019-01-17T22:43:03.472Z,6.57
2019-01-17T22:48:06.205Z,9.93
2019-01-17T22:53:08.692Z,7.70
2019-01-17T22:58:11.422Z,8.93
2019-01-17T23:03:13.667Z,5.30
2019-01-17T23:08:16.274Z,9.07
2019-01-17T23:13:18.924Z,4.40
2019-01-17T23:18:21.514Z,5.17
2019-01-17T23:23:24.047Z,4.30
2019-01-17T23:28:26.496Z,4.23
2019-01-17T23:33:29.286Z,4.47
2019-01-17T23:38:31.656Z,5.87
2019-01-17T23:43:34.150Z,5.17
2019-01-17T23:48:37.943Z,4.10
2019-01-17T23:53:42.251Z,4.17
2019-01-17T23:58:44.555Z,6.40
